sensor_id;sensor_type;location;lat;lon;timestamp;P1;durP1;ratioP1;P2;durP2;ratioP2
479;SDS011;226;48.606;9.096;2022-07-15T00:00:27;9.17;;;2.83;;
479;SDS011;226;48.606;9.096;2022-07-15T00:02:55;2.40;;;1.93;;
479;SDS011;226;48.606;9.096;2022-07-15T00:05:24;2.57;;;2.37;;
479;SDS011;226;48.606;9.096;2022-07-15T00:07:52;3.23;;;2.57;;
479;SDS011;226;48.606;9.096;2022-07-15T00:10:22;7.20;;;2.30;;
479;SDS011;226;48.606;9.096;2022-07-15T00:12:50;5.60;;;2.77;;
479;SDS011;226;48.606;9.096;2022-07-15T00:15:21;5.40;;;2.23;;
479;SDS011;226;48.606;9.096;2022-07-15T00:17:50;3.03;;;2.70;;
479;SDS011;226;48.606;9.096;2022-07-15T00:20:18;3.20;;;2.67;;
479;SDS011;226;48.606;9.096;2022-07-15T00:22:48;3.57;;;2.23;;
479;SDS011;226;48.606;9.096;2022-07-15T00:25:16;5.30;;;2.70;;
479;SDS011;226;48.606;9.096;2022-07-15T00:27:52;3.83;;;2.27;;
479;SDS011;226;48.606;9.096;2022-07-15T00:30:22;2.93;;;2.30;;
479;SDS011;226;48.606;9.096;2022-07-15T00:32:50;5.13;;;2.23;;
479;SDS011;226;48.606;9.096;2022-07-15T00:35:19;2.13;;;2.03;;
479;SDS011;226;48.606;9.096;2022-07-15T00:37:47;2.60;;;2.40;;
479;SDS011;226;48.606;9.096;2022-07-15T00:40:15;2.13;;;1.93;;
479;SDS011;226;48.606;9.096;2022-07-15T00:42:43;3.20;;;2.90;;
479;SDS011;226;48.606;9.096;2022-07-15T00:45:13;2.60;;;2.40;;
479;SDS011;226;48.606;9.096;2022-07-15T00:47:44;5.47;;;3.20;;
479;SDS011;226;48.606;9.096;2022-07-15T00:50:13;3.10;;;2.73;;
479;SDS011;226;48.606;9.096;2022-07-15T00:52:43;2.50;;;2.00;;
479;SDS011;226;48.606;9.096;2022-07-15T00:55:13;3.57;;;2.23;;
479;SDS011;226;48.606;9.096;2022-07-15T00:57:42;2.93;;;2.67;;
479;SDS011;226;48.606;9.096;2022-07-15T01:00:12;5.53;;;3.20;;
479;SDS011;226;48.606;9.096;2022-07-15T01:02:43;3.23;;;2.47;;
479;SDS011;226;48.606;9.096;2022-07-15T01:05:17;3.00;;;2.80;;
479;SDS011;226;48.606;9.096;2022-07-15T01:07:47;4.47;;;2.50;;
479;SDS011;226;48.606;9.096;2022-07-15T01:10:17;3.70;;;2.43;;
479;SDS011;226;48.606;9.096;2022-07-15T01:12:46;2.90;;;2.70;;
479;SDS011;226;48.606;9.096;2022-07-15T01:15:16;5.33;;;2.30;;
479;SDS011;226;48.606;9.096;2022-07-15T01:17:45;3.60;;;2.57;;
479;SDS011;226;48.606;9.096;2022-07-15T01:20:14;2.73;;;2.20;;
479;SDS011;226;48.606;9.096;2022-07-15T01:22:45;2.73;;;2.53;;
479;SDS011;226;48.606;9.096;2022-07-15T01:25:14;2.90;;;2.23;;
479;SDS011;226;48.606;9.096;2022-07-15T01:27:42;2.63;;;2.40;;
479;SDS011;226;48.606;9.096;2022-07-15T01:30:10;2.40;;;2.20;;
479;SDS011;226;48.606;9.096;2022-07-15T01:32:38;2.33;;;2.13;;
479;SDS011;226;48.606;9.096;2022-07-15T01:35:07;4.30;;;2.80;;
479;SDS011;226;48.606;9.096;2022-07-15T01:37:36;3.87;;;3.17;;
479;SDS011;226;48.606;9.096;2022-07-15T01:40:06;4.37;;;2.87;;
479;SDS011;226;48.606;9.096;2022-07-15T01:42:35;3.47;;;2.50;;
479;SDS011;226;48.606;9.096;2022-07-15T01:45:03;7.60;;;2.90;;
479;SDS011;226;48.606;9.096;2022-07-15T01:47:32;3.83;;;2.60;;
479;SDS011;226;48.606;9.096;2022-07-15T01:50:00;3.83;;;2.77;;
479;SDS011;226;48.606;9.096;2022-07-15T01:52:27;4.53;;;3.30;;
479;SDS011;226;48.606;9.096;2022-07-15T01:54:55;2.17;;;1.97;;
479;SDS011;226;48.606;9.096;2022-07-15T01:57:24;5.60;;;2.67;;
479;SDS011;226;48.606;9.096;2022-07-15T01:59:53;3.57;;;2.30;;
479;SDS011;226;48.606;9.096;2022-07-15T02:02:21;2.93;;;2.50;;
479;SDS011;226;48.606;9.096;2022-07-15T02:04:49;5.80;;;2.63;;
479;SDS011;226;48.606;9.096;2022-07-15T02:07:17;3.17;;;2.90;;
479;SDS011;226;48.606;9.096;2022-07-15T02:09:45;2.33;;;2.10;;
479;SDS011;226;48.606;9.096;2022-07-15T02:12:13;3.57;;;2.83;;
479;SDS011;226;48.606;9.096;2022-07-15T02:14:43;2.50;;;2.30;;
479;SDS011;226;48.606;9.096;2022-07-15T02:17:11;2.40;;;2.30;;
479;SDS011;226;48.606;9.096;2022-07-15T02:19:39;2.70;;;2.50;;
479;SDS011;226;48.606;9.096;2022-07-15T02:22:07;3.70;;;2.73;;
479;SDS011;226;48.606;9.096;2022-07-15T02:24:35;3.57;;;3.23;;
479;SDS011;226;48.606;9.096;2022-07-15T02:27:03;3.00;;;2.67;;
479;SDS011;226;48.606;9.096;2022-07-15T02:29:31;5.00;;;2.60;;
479;SDS011;226;48.606;9.096;2022-07-15T02:32:00;2.37;;;2.17;;
479;SDS011;226;48.606;9.096;2022-07-15T02:34:28;5.67;;;3.10;;
479;SDS011;226;48.606;9.096;2022-07-15T02:36:56;3.93;;;2.43;;
479;SDS011;226;48.606;9.096;2022-07-15T02:39:25;4.00;;;3.20;;
479;SDS011;226;48.606;9.096;2022-07-15T02:41:53;4.60;;;3.00;;
479;SDS011;226;48.606;9.096;2022-07-15T02:44:21;30.97;;;3.73;;
479;SDS011;226;48.606;9.096;2022-07-15T02:46:49;3.00;;;2.73;;
479;SDS011;226;48.606;9.096;2022-07-15T02:49:18;4.17;;;2.60;;
479;SDS011;226;48.606;9.096;2022-07-15T02:51:46;3.90;;;2.83;;
479;SDS011;226;48.606;9.096;2022-07-15T02:54:14;8.30;;;3.57;;
479;SDS011;226;48.606;9.096;2022-07-15T02:56:42;4.07;;;2.70;;
479;SDS011;226;48.606;9.096;2022-07-15T02:59:10;4.93;;;3.30;;
479;SDS011;226;48.606;9.096;2022-07-15T03:01:38;3.23;;;2.90;;
479;SDS011;226;48.606;9.096;2022-07-15T03:04:06;3.63;;;2.60;;
479;SDS011;226;48.606;9.096;2022-07-15T03:06:36;4.83;;;2.67;;
479;SDS011;226;48.606;9.096;2022-07-15T03:09:04;3.27;;;2.97;;
479;SDS011;226;48.606;9.096;2022-07-15T03:11:33;4.70;;;3.00;;
479;SDS011;226;48.606;9.096;2022-07-15T03:14:01;4.43;;;2.40;;
479;SDS011;226;48.606;9.096;2022-07-15T03:16:29;4.07;;;2.70;;
479;SDS011;226;48.606;9.096;2022-07-15T03:18:57;2.80;;;2.50;;
479;SDS011;226;48.606;9.096;2022-07-15T03:21:25;10.90;;;3.20;;
479;SDS011;226;48.606;9.096;2022-07-15T03:23:54;4.40;;;2.57;;
479;SDS011;226;48.606;9.096;2022-07-15T03:26:22;4.40;;;3.13;;
479;SDS011;226;48.606;9.096;2022-07-15T03:28:50;2.33;;;2.13;;
479;SDS011;226;48.606;9.096;2022-07-15T03:31:18;2.90;;;2.67;;
479;SDS011;226;48.606;9.096;2022-07-15T03:33:47;5.03;;;2.50;;
479;SDS011;226;48.606;9.096;2022-07-15T03:36:19;3.63;;;3.10;;
479;SDS011;226;48.606;9.096;2022-07-15T03:38:47;5.80;;;3.60;;
479;SDS011;226;48.606;9.096;2022-07-15T03:41:19;7.50;;;3.33;;
479;SDS011;226;48.606;9.096;2022-07-15T03:43:47;3.40;;;3.00;;
479;SDS011;226;48.606;9.096;2022-07-15T03:46:15;6.27;;;2.30;;
479;SDS011;226;48.606;9.096;2022-07-15T03:48:43;2.70;;;2.50;;
479;SDS011;226;48.606;9.096;2022-07-15T03:51:11;4.10;;;3.20;;
479;SDS011;226;48.606;9.096;2022-07-15T03:53:40;4.13;;;3.50;;
479;SDS011;226;48.606;9.096;2022-07-15T03:56:08;8.03;;;4.43;;
479;SDS011;226;48.606;9.096;2022-07-15T03:58:37;4.13;;;2.90;;
479;SDS011;226;48.606;9.096;2022-07-15T04:01:05;3.03;;;2.47;;
479;SDS011;226;48.606;9.096;2022-07-15T04:03:34;4.83;;;3.20;;
479;SDS011;226;48.606;9.096;2022-07-15T04:06:02;3.07;;;2.50;;
479;SDS011;226;48.606;9.096;2022-07-15T04:08:30;3.33;;;2.73;;
479;SDS011;226;48.606;9.096;2022-07-15T04:10:58;3.83;;;3.10;;
479;SDS011;226;48.606;9.096;2022-07-15T04:13:26;3.60;;;3.07;;
479;SDS011;226;48.606;9.096;2022-07-15T04:15:55;3.80;;;2.60;;
479;SDS011;226;48.606;9.096;2022-07-15T04:18:23;7.23;;;3.57;;
479;SDS011;226;48.606;9.096;2022-07-15T04:20:58;6.27;;;2.90;;
479;SDS011;226;48.606;9.096;2022-07-15T04:23:27;3.40;;;2.77;;
479;SDS011;226;48.606;9.096;2022-07-15T04:25:55;3.07;;;2.80;;
479;SDS011;226;48.606;9.096;2022-07-15T04:28:23;3.23;;;2.50;;
479;SDS011;226;48.606;9.096;2022-07-15T04:30:52;6.80;;;2.97;;
479;SDS011;226;48.606;9.096;2022-07-15T04:33:21;3.23;;;2.23;;
479;SDS011;226;48.606;9.096;2022-07-15T04:35:50;4.43;;;2.90;;
479;SDS011;226;48.606;9.096;2022-07-15T04:38:18;3.80;;;3.10;;
479;SDS011;226;48.606;9.096;2022-07-15T04:40:46;17.13;;;3.87;;
479;SDS011;226;48.606;9.096;2022-07-15T04:43:14;7.47;;;3.00;;
479;SDS011;226;48.606;9.096;2022-07-15T04:45:42;2.73;;;2.53;;
479;SDS011;226;48.606;9.096;2022-07-15T04:48:10;5.47;;;3.70;;
479;SDS011;226;48.606;9.096;2022-07-15T04:50:57;3.07;;;2.77;;
479;SDS011;226;48.606;9.096;2022-07-15T04:53:25;4.67;;;3.23;;
479;SDS011;226;48.606;9.096;2022-07-15T04:55:53;4.77;;;3.23;;
479;SDS011;226;48.606;9.096;2022-07-15T04:58:21;3.93;;;3.03;;
479;SDS011;226;48.606;9.096;2022-07-15T05:00:49;3.37;;;2.87;;
479;SDS011;226;48.606;9.096;2022-07-15T05:03:18;3.77;;;3.00;;
479;SDS011;226;48.606;9.096;2022-07-15T05:05:46;7.60;;;3.40;;
479;SDS011;226;48.606;9.096;2022-07-15T05:08:16;8.23;;;3.57;;
479;SDS011;226;48.606;9.096;2022-07-15T05:10:44;4.33;;;3.70;;
479;SDS011;226;48.606;9.096;2022-07-15T05:13:12;5.53;;;3.50;;
479;SDS011;226;48.606;9.096;2022-07-15T05:15:40;3.80;;;2.53;;
479;SDS011;226;48.606;9.096;2022-07-15T05:18:08;3.87;;;3.07;;
479;SDS011;226;48.606;9.096;2022-07-15T05:20:36;3.07;;;2.63;;
479;SDS011;226;48.606;9.096;2022-07-15T05:23:04;3.37;;;2.90;;
479;SDS011;226;48.606;9.096;2022-07-15T05:25:33;3.17;;;2.87;;
479;SDS011;226;48.606;9.096;2022-07-15T05:28:02;4.63;;;3.27;;
479;SDS011;226;48.606;9.096;2022-07-15T05:30:30;4.40;;;2.87;;
479;SDS011;226;48.606;9.096;2022-07-15T05:33:00;3.77;;;3.00;;
479;SDS011;226;48.606;9.096;2022-07-15T05:35:28;4.23;;;3.13;;
479;SDS011;226;48.606;9.096;2022-07-15T05:37:56;3.17;;;2.10;;
479;SDS011;226;48.606;9.096;2022-07-15T05:40:24;3.77;;;2.97;;
479;SDS011;226;48.606;9.096;2022-07-15T05:42:54;3.43;;;2.57;;
479;SDS011;226;48.606;9.096;2022-07-15T05:45:22;4.60;;;2.67;;
479;SDS011;226;48.606;9.096;2022-07-15T05:47:51;3.83;;;3.17;;
479;SDS011;226;48.606;9.096;2022-07-15T05:50:19;4.17;;;3.07;;
479;SDS011;226;48.606;9.096;2022-07-15T05:52:48;5.37;;;2.80;;
479;SDS011;226;48.606;9.096;2022-07-15T05:55:16;4.43;;;3.03;;
479;SDS011;226;48.606;9.096;2022-07-15T05:57:44;4.57;;;2.83;;
479;SDS011;226;48.606;9.096;2022-07-15T06:00:14;5.17;;;3.03;;
479;SDS011;226;48.606;9.096;2022-07-15T06:02:42;5.70;;;2.80;;
479;SDS011;226;48.606;9.096;2022-07-15T06:05:11;8.57;;;3.00;;
479;SDS011;226;48.606;9.096;2022-07-15T06:07:39;3.30;;;2.80;;
479;SDS011;226;48.606;9.096;2022-07-15T06:10:08;4.13;;;2.33;;
479;SDS011;226;48.606;9.096;2022-07-15T06:12:37;2.40;;;2.20;;
479;SDS011;226;48.606;9.096;2022-07-15T06:15:05;4.27;;;2.27;;
479;SDS011;226;48.606;9.096;2022-07-15T06:17:36;2.37;;;2.17;;
479;SDS011;226;48.606;9.096;2022-07-15T06:20:04;2.43;;;2.20;;
479;SDS011;226;48.606;9.096;2022-07-15T06:22:37;2.30;;;2.10;;
479;SDS011;226;48.606;9.096;2022-07-15T06:25:05;1.70;;;1.60;;
479;SDS011;226;48.606;9.096;2022-07-15T06:27:34;3.13;;;1.77;;
479;SDS011;226;48.606;9.096;2022-07-15T06:30:03;1.90;;;1.73;;
479;SDS011;226;48.606;9.096;2022-07-15T06:32:31;2.13;;;2.03;;
479;SDS011;226;48.606;9.096;2022-07-15T06:35:01;2.07;;;1.87;;
479;SDS011;226;48.606;9.096;2022-07-15T06:37:30;3.40;;;2.73;;
479;SDS011;226;48.606;9.096;2022-07-15T06:39:58;5.03;;;2.47;;
479;SDS011;226;48.606;9.096;2022-07-15T06:42:26;3.73;;;1.93;;
479;SDS011;226;48.606;9.096;2022-07-15T06:44:54;2.10;;;2.00;;
479;SDS011;226;48.606;9.096;2022-07-15T06:47:22;2.50;;;2.03;;
479;SDS011;226;48.606;9.096;2022-07-15T06:49:51;1.50;;;1.40;;
479;SDS011;226;48.606;9.096;2022-07-15T06:52:20;1.60;;;1.50;;
479;SDS011;226;48.606;9.096;2022-07-15T06:54:48;4.57;;;2.00;;
479;SDS011;226;48.606;9.096;2022-07-15T06:57:16;1.50;;;1.40;;
479;SDS011;226;48.606;9.096;2022-07-15T06:59:45;3.07;;;1.70;;
479;SDS011;226;48.606;9.096;2022-07-15T07:02:13;1.67;;;1.57;;
479;SDS011;226;48.606;9.096;2022-07-15T07:04:42;1.90;;;1.80;;
479;SDS011;226;48.606;9.096;2022-07-15T07:07:11;2.60;;;1.40;;
479;SDS011;226;48.606;9.096;2022-07-15T07:09:41;1.77;;;1.60;;
479;SDS011;226;48.606;9.096;2022-07-15T07:12:09;1.83;;;1.63;;
479;SDS011;226;48.606;9.096;2022-07-15T07:14:37;3.17;;;2.00;;
479;SDS011;226;48.606;9.096;2022-07-15T07:17:05;1.50;;;1.40;;
479;SDS011;226;48.606;9.096;2022-07-15T07:19:33;2.37;;;1.67;;
479;SDS011;226;48.606;9.096;2022-07-15T07:22:01;2.60;;;1.57;;
479;SDS011;226;48.606;9.096;2022-07-15T07:24:30;1.60;;;1.30;;
479;SDS011;226;48.606;9.096;2022-07-15T07:26:59;1.80;;;1.70;;
479;SDS011;226;48.606;9.096;2022-07-15T07:29:32;2.57;;;2.17;;
479;SDS011;226;48.606;9.096;2022-07-15T07:32:00;3.00;;;2.73;;
479;SDS011;226;48.606;9.096;2022-07-15T07:34:29;1.50;;;1.40;;
479;SDS011;226;48.606;9.096;2022-07-15T07:36:57;2.83;;;1.33;;
479;SDS011;226;48.606;9.096;2022-07-15T07:39:25;3.23;;;1.60;;
479;SDS011;226;48.606;9.096;2022-07-15T07:41:53;1.37;;;1.10;;
479;SDS011;226;48.606;9.096;2022-07-15T07:44:22;1.37;;;1.27;;
479;SDS011;226;48.606;9.096;2022-07-15T07:46:50;7.17;;;1.73;;
479;SDS011;226;48.606;9.096;2022-07-15T07:49:18;1.30;;;1.20;;
479;SDS011;226;48.606;9.096;2022-07-15T07:52:03;1.70;;;1.60;;
479;SDS011;226;48.606;9.096;2022-07-15T07:54:32;1.60;;;1.50;;
479;SDS011;226;48.606;9.096;2022-07-15T07:57:00;1.97;;;1.60;;
479;SDS011;226;48.606;9.096;2022-07-15T07:59:29;1.73;;;1.43;;
479;SDS011;226;48.606;9.096;2022-07-15T08:01:58;1.47;;;1.37;;
479;SDS011;226;48.606;9.096;2022-07-15T08:04:26;4.00;;;1.80;;
479;SDS011;226;48.606;9.096;2022-07-15T08:06:55;2.60;;;1.47;;
479;SDS011;226;48.606;9.096;2022-07-15T08:09:23;1.30;;;1.20;;
479;SDS011;226;48.606;9.096;2022-07-15T08:11:51;1.70;;;1.27;;
479;SDS011;226;48.606;9.096;2022-07-15T08:14:19;1.77;;;1.20;;
479;SDS011;226;48.606;9.096;2022-07-15T08:16:48;9.23;;;1.57;;
479;SDS011;226;48.606;9.096;2022-07-15T08:19:17;3.03;;;1.50;;
479;SDS011;226;48.606;9.096;2022-07-15T08:21:46;1.43;;;1.33;;
479;SDS011;226;48.606;9.096;2022-07-15T08:24:14;1.97;;;1.77;;
479;SDS011;226;48.606;9.096;2022-07-15T08:26:42;1.80;;;1.33;;
479;SDS011;226;48.606;9.096;2022-07-15T08:29:10;2.07;;;1.27;;
479;SDS011;226;48.606;9.096;2022-07-15T08:31:39;2.03;;;1.80;;
479;SDS011;226;48.606;9.096;2022-07-15T08:34:08;2.50;;;1.60;;
479;SDS011;226;48.606;9.096;2022-07-15T08:36:36;1.83;;;1.30;;
479;SDS011;226;48.606;9.096;2022-07-15T08:39:04;1.57;;;1.30;;
479;SDS011;226;48.606;9.096;2022-07-15T08:41:36;1.73;;;1.50;;
479;SDS011;226;48.606;9.096;2022-07-15T08:44:04;1.33;;;0.80;;
479;SDS011;226;48.606;9.096;2022-07-15T08:46:33;5.80;;;1.57;;
479;SDS011;226;48.606;9.096;2022-07-15T08:49:04;2.80;;;1.57;;
479;SDS011;226;48.606;9.096;2022-07-15T08:51:36;1.47;;;1.37;;
479;SDS011;226;48.606;9.096;2022-07-15T08:54:08;1.40;;;1.30;;
479;SDS011;226;48.606;9.096;2022-07-15T08:56:36;1.57;;;1.47;;
479;SDS011;226;48.606;9.096;2022-07-15T08:59:05;3.73;;;1.90;;
479;SDS011;226;48.606;9.096;2022-07-15T09:01:40;2.13;;;1.70;;
479;SDS011;226;48.606;9.096;2022-07-15T09:04:09;1.67;;;1.60;;
479;SDS011;226;48.606;9.096;2022-07-15T09:06:40;1.63;;;1.53;;
479;SDS011;226;48.606;9.096;2022-07-15T09:09:23;3.53;;;1.97;;
479;SDS011;226;48.606;9.096;2022-07-15T09:11:53;1.43;;;1.33;;
479;SDS011;226;48.606;9.096;2022-07-15T09:14:32;1.43;;;1.33;;
479;SDS011;226;48.606;9.096;2022-07-15T09:17:04;1.40;;;1.30;;
479;SDS011;226;48.606;9.096;2022-07-15T09:22:26;1.73;;;1.63;;
479;SDS011;226;48.606;9.096;2022-07-15T09:25:03;3.97;;;1.90;;
479;SDS011;226;48.606;9.096;2022-07-15T09:27:34;4.63;;;2.23;;
479;SDS011;226;48.606;9.096;2022-07-15T09:30:14;1.60;;;1.50;;
479;SDS011;226;48.606;9.096;2022-07-15T09:33:03;1.63;;;1.53;;
479;SDS011;226;48.606;9.096;2022-07-15T09:35:50;1.87;;;1.60;;
479;SDS011;226;48.606;9.096;2022-07-15T09:38:32;1.90;;;1.80;;
479;SDS011;226;48.606;9.096;2022-07-15T09:41:07;1.47;;;1.37;;
479;SDS011;226;48.606;9.096;2022-07-15T09:43:43;3.80;;;2.00;;
479;SDS011;226;48.606;9.096;2022-07-15T09:46:13;2.23;;;2.03;;
479;SDS011;226;48.606;9.096;2022-07-15T09:48:43;1.63;;;1.53;;
479;SDS011;226;48.606;9.096;2022-07-15T09:51:12;2.07;;;1.50;;
479;SDS011;226;48.606;9.096;2022-07-15T09:53:41;2.73;;;2.27;;
479;SDS011;226;48.606;9.096;2022-07-15T09:56:11;2.07;;;1.97;;
479;SDS011;226;48.606;9.096;2022-07-15T09:58:41;2.23;;;2.03;;
479;SDS011;226;48.606;9.096;2022-07-15T10:01:10;1.50;;;1.40;;
479;SDS011;226;48.606;9.096;2022-07-15T10:03:39;3.07;;;2.07;;
479;SDS011;226;48.606;9.096;2022-07-15T10:06:08;2.60;;;2.07;;
479;SDS011;226;48.606;9.096;2022-07-15T10:08:38;1.73;;;1.63;;
479;SDS011;226;48.606;9.096;2022-07-15T10:11:09;1.53;;;1.43;;
479;SDS011;226;48.606;9.096;2022-07-15T10:19:49;3.83;;;2.20;;
479;SDS011;226;48.606;9.096;2022-07-15T10:22:39;1.63;;;1.53;;
479;SDS011;226;48.606;9.096;2022-07-15T10:25:20;2.57;;;1.67;;
479;SDS011;226;48.606;9.096;2022-07-15T10:28:03;1.73;;;1.60;;
479;SDS011;226;48.606;9.096;2022-07-15T10:30:32;2.13;;;1.53;;
479;SDS011;226;48.606;9.096;2022-07-15T10:33:08;3.60;;;2.23;;
479;SDS011;226;48.606;9.096;2022-07-15T10:35:43;2.43;;;2.23;;
479;SDS011;226;48.606;9.096;2022-07-15T10:38:20;2.77;;;2.33;;
479;SDS011;226;48.606;9.096;2022-07-15T10:41:03;7.50;;;2.03;;
479;SDS011;226;48.606;9.096;2022-07-15T10:43:45;3.00;;;2.17;;
479;SDS011;226;48.606;9.096;2022-07-15T10:52:13;2.10;;;1.80;;
479;SDS011;226;48.606;9.096;2022-07-15T10:54:49;2.70;;;2.50;;
479;SDS011;226;48.606;9.096;2022-07-15T10:57:18;1.83;;;1.73;;
479;SDS011;226;48.606;9.096;2022-07-15T10:59:53;4.33;;;2.53;;
479;SDS011;226;48.606;9.096;2022-07-15T11:02:23;1.77;;;1.63;;
479;SDS011;226;48.606;9.096;2022-07-15T11:04:52;3.70;;;1.97;;
479;SDS011;226;48.606;9.096;2022-07-15T11:07:47;3.00;;;2.50;;
479;SDS011;226;48.606;9.096;2022-07-15T11:10:19;3.17;;;1.80;;
479;SDS011;226;48.606;9.096;2022-07-15T11:13:02;2.40;;;2.20;;
479;SDS011;226;48.606;9.096;2022-07-15T11:15:33;5.10;;;2.00;;
479;SDS011;226;48.606;9.096;2022-07-15T11:18:02;2.63;;;1.50;;
479;SDS011;226;48.606;9.096;2022-07-15T11:20:35;1.80;;;1.70;;
479;SDS011;226;48.606;9.096;2022-07-15T11:23:06;3.33;;;2.23;;
479;SDS011;226;48.606;9.096;2022-07-15T11:25:35;2.10;;;1.90;;
479;SDS011;226;48.606;9.096;2022-07-15T11:28:06;2.40;;;1.80;;
479;SDS011;226;48.606;9.096;2022-07-15T11:30:38;2.00;;;1.43;;
479;SDS011;226;48.606;9.096;2022-07-15T11:33:08;2.10;;;1.90;;
479;SDS011;226;48.606;9.096;2022-07-15T11:35:44;2.43;;;1.90;;
479;SDS011;226;48.606;9.096;2022-07-15T11:38:14;6.20;;;1.80;;
479;SDS011;226;48.606;9.096;2022-07-15T11:40:43;3.77;;;2.10;;
479;SDS011;226;48.606;9.096;2022-07-15T11:43:30;2.37;;;2.17;;
479;SDS011;226;48.606;9.096;2022-07-15T11:46:29;4.03;;;2.20;;
479;SDS011;226;48.606;9.096;2022-07-15T11:48:59;1.87;;;1.77;;
479;SDS011;226;48.606;9.096;2022-07-15T11:51:28;3.23;;;1.80;;
479;SDS011;226;48.606;9.096;2022-07-15T11:53:58;3.30;;;2.37;;
479;SDS011;226;48.606;9.096;2022-07-15T11:56:26;2.57;;;2.20;;
479;SDS011;226;48.606;9.096;2022-07-15T11:58:55;2.53;;;1.97;;
479;SDS011;226;48.606;9.096;2022-07-15T12:01:24;2.97;;;2.20;;
479;SDS011;226;48.606;9.096;2022-07-15T12:03:56;1.97;;;1.87;;
479;SDS011;226;48.606;9.096;2022-07-15T12:06:26;1.63;;;1.53;;
479;SDS011;226;48.606;9.096;2022-07-15T12:08:56;2.27;;;1.83;;
479;SDS011;226;48.606;9.096;2022-07-15T12:11:25;4.20;;;2.07;;
479;SDS011;226;48.606;9.096;2022-07-15T12:13:56;2.23;;;2.03;;
479;SDS011;226;48.606;9.096;2022-07-15T12:16:27;3.70;;;2.27;;
479;SDS011;226;48.606;9.096;2022-07-15T12:18:59;2.40;;;1.70;;
479;SDS011;226;48.606;9.096;2022-07-15T12:21:30;2.80;;;1.87;;
479;SDS011;226;48.606;9.096;2022-07-15T12:24:00;2.17;;;1.70;;
479;SDS011;226;48.606;9.096;2022-07-15T12:26:29;4.13;;;2.40;;
479;SDS011;226;48.606;9.096;2022-07-15T12:28:59;5.03;;;1.50;;
479;SDS011;226;48.606;9.096;2022-07-15T12:31:31;3.00;;;2.20;;
479;SDS011;226;48.606;9.096;2022-07-15T12:34:02;1.80;;;1.70;;
479;SDS011;226;48.606;9.096;2022-07-15T12:36:30;3.30;;;2.10;;
479;SDS011;226;48.606;9.096;2022-07-15T12:39:05;3.10;;;2.27;;
479;SDS011;226;48.606;9.096;2022-07-15T12:41:56;2.60;;;2.37;;
479;SDS011;226;48.606;9.096;2022-07-15T12:44:28;2.40;;;2.00;;
479;SDS011;226;48.606;9.096;2022-07-15T12:46:58;1.50;;;1.40;;
479;SDS011;226;48.606;9.096;2022-07-15T12:49:42;1.93;;;1.73;;
479;SDS011;226;48.606;9.096;2022-07-15T12:52:13;2.17;;;2.07;;
479;SDS011;226;48.606;9.096;2022-07-15T12:54:43;1.97;;;1.83;;
479;SDS011;226;48.606;9.096;2022-07-15T12:57:18;2.10;;;1.97;;
479;SDS011;226;48.606;9.096;2022-07-15T12:59:52;3.03;;;2.30;;
479;SDS011;226;48.606;9.096;2022-07-15T13:02:21;4.90;;;2.07;;
479;SDS011;226;48.606;9.096;2022-07-15T13:04:50;7.93;;;2.60;;
479;SDS011;226;48.606;9.096;2022-07-15T13:07:18;3.30;;;2.07;;
479;SDS011;226;48.606;9.096;2022-07-15T13:09:47;2.40;;;2.20;;
479;SDS011;226;48.606;9.096;2022-07-15T13:12:15;1.80;;;1.70;;
479;SDS011;226;48.606;9.096;2022-07-15T13:14:43;3.40;;;2.30;;
479;SDS011;226;48.606;9.096;2022-07-15T13:17:11;3.17;;;1.80;;
479;SDS011;226;48.606;9.096;2022-07-15T13:19:39;2.20;;;1.77;;
479;SDS011;226;48.606;9.096;2022-07-15T13:22:09;1.90;;;1.80;;
479;SDS011;226;48.606;9.096;2022-07-15T13:24:37;2.30;;;1.60;;
479;SDS011;226;48.606;9.096;2022-07-15T13:27:05;5.30;;;2.20;;
479;SDS011;226;48.606;9.096;2022-07-15T13:29:33;1.73;;;1.63;;
479;SDS011;226;48.606;9.096;2022-07-15T13:32:01;3.20;;;1.77;;
479;SDS011;226;48.606;9.096;2022-07-15T13:34:29;1.47;;;1.37;;
479;SDS011;226;48.606;9.096;2022-07-15T13:36:57;1.10;;;1.10;;
479;SDS011;226;48.606;9.096;2022-07-15T13:39:26;5.67;;;1.90;;
479;SDS011;226;48.606;9.096;2022-07-15T13:41:54;2.83;;;1.90;;
479;SDS011;226;48.606;9.096;2022-07-15T13:44:22;2.00;;;1.80;;
479;SDS011;226;48.606;9.096;2022-07-15T13:46:51;1.90;;;1.80;;
479;SDS011;226;48.606;9.096;2022-07-15T13:49:19;2.10;;;1.77;;
479;SDS011;226;48.606;9.096;2022-07-15T13:52:07;1.87;;;1.50;;
479;SDS011;226;48.606;9.096;2022-07-15T13:54:35;2.20;;;2.03;;
479;SDS011;226;48.606;9.096;2022-07-15T13:57:03;2.03;;;1.93;;
479;SDS011;226;48.606;9.096;2022-07-15T13:59:31;2.70;;;2.30;;
479;SDS011;226;48.606;9.096;2022-07-15T14:01:59;1.67;;;1.57;;
479;SDS011;226;48.606;9.096;2022-07-15T14:04:29;4.00;;;1.77;;
479;SDS011;226;48.606;9.096;2022-07-15T14:06:58;6.83;;;1.90;;
479;SDS011;226;48.606;9.096;2022-07-15T14:09:26;1.83;;;1.73;;
479;SDS011;226;48.606;9.096;2022-07-15T14:11:55;7.93;;;1.97;;
479;SDS011;226;48.606;9.096;2022-07-15T14:14:24;4.60;;;1.50;;
479;SDS011;226;48.606;9.096;2022-07-15T14:16:52;1.80;;;1.70;;
479;SDS011;226;48.606;9.096;2022-07-15T14:19:21;1.73;;;1.63;;
479;SDS011;226;48.606;9.096;2022-07-15T14:21:49;1.67;;;1.57;;
479;SDS011;226;48.606;9.096;2022-07-15T14:24:19;2.40;;;2.00;;
479;SDS011;226;48.606;9.096;2022-07-15T14:26:48;1.37;;;1.27;;
479;SDS011;226;48.606;9.096;2022-07-15T14:29:18;1.60;;;1.50;;
479;SDS011;226;48.606;9.096;2022-07-15T14:31:47;4.67;;;1.97;;
479;SDS011;226;48.606;9.096;2022-07-15T14:34:26;1.63;;;1.53;;
479;SDS011;226;48.606;9.096;2022-07-15T14:36:54;1.60;;;1.50;;
479;SDS011;226;48.606;9.096;2022-07-15T14:39:42;1.67;;;1.37;;
479;SDS011;226;48.606;9.096;2022-07-15T14:42:10;2.53;;;1.50;;
479;SDS011;226;48.606;9.096;2022-07-15T14:44:39;1.60;;;1.50;;
479;SDS011;226;48.606;9.096;2022-07-15T14:47:08;1.80;;;1.70;;
479;SDS011;226;48.606;9.096;2022-07-15T14:49:36;2.00;;;1.80;;
479;SDS011;226;48.606;9.096;2022-07-15T14:52:04;1.97;;;1.87;;
479;SDS011;226;48.606;9.096;2022-07-15T14:54:32;1.40;;;1.30;;
479;SDS011;226;48.606;9.096;2022-07-15T14:57:00;1.77;;;1.67;;
479;SDS011;226;48.606;9.096;2022-07-15T14:59:28;1.60;;;1.50;;
479;SDS011;226;48.606;9.096;2022-07-15T15:01:58;1.70;;;1.60;;
479;SDS011;226;48.606;9.096;2022-07-15T15:04:26;1.83;;;1.67;;
479;SDS011;226;48.606;9.096;2022-07-15T15:06:55;1.40;;;1.40;;
479;SDS011;226;48.606;9.096;2022-07-15T15:09:23;1.50;;;1.40;;
479;SDS011;226;48.606;9.096;2022-07-15T15:11:51;2.00;;;1.50;;
479;SDS011;226;48.606;9.096;2022-07-15T15:14:19;2.30;;;1.90;;
479;SDS011;226;48.606;9.096;2022-07-15T15:16:47;1.90;;;1.80;;
479;SDS011;226;48.606;9.096;2022-07-15T15:19:35;2.00;;;1.80;;
479;SDS011;226;48.606;9.096;2022-07-15T15:22:04;3.23;;;1.60;;
479;SDS011;226;48.606;9.096;2022-07-15T15:24:33;1.80;;;1.70;;
479;SDS011;226;48.606;9.096;2022-07-15T15:27:01;1.70;;;1.60;;
479;SDS011;226;48.606;9.096;2022-07-15T15:29:31;1.50;;;1.40;;
479;SDS011;226;48.606;9.096;2022-07-15T15:31:59;2.97;;;2.40;;
479;SDS011;226;48.606;9.096;2022-07-15T15:34:28;2.07;;;1.87;;
479;SDS011;226;48.606;9.096;2022-07-15T15:36:58;3.70;;;1.50;;
479;SDS011;226;48.606;9.096;2022-07-15T15:39:26;3.53;;;1.90;;
479;SDS011;226;48.606;9.096;2022-07-15T15:41:54;1.40;;;1.30;;
479;SDS011;226;48.606;9.096;2022-07-15T15:44:22;1.83;;;1.60;;
479;SDS011;226;48.606;9.096;2022-07-15T15:46:50;2.20;;;2.00;;
479;SDS011;226;48.606;9.096;2022-07-15T15:49:18;1.33;;;1.23;;
479;SDS011;226;48.606;9.096;2022-07-15T15:51:46;2.73;;;1.20;;
479;SDS011;226;48.606;9.096;2022-07-15T15:54:16;2.40;;;1.50;;
479;SDS011;226;48.606;9.096;2022-07-15T15:56:47;1.67;;;1.57;;
479;SDS011;226;48.606;9.096;2022-07-15T15:59:16;2.07;;;1.97;;
479;SDS011;226;48.606;9.096;2022-07-15T16:01:44;1.27;;;1.27;;
479;SDS011;226;48.606;9.096;2022-07-15T16:04:12;3.00;;;1.60;;
479;SDS011;226;48.606;9.096;2022-07-15T16:06:41;1.43;;;1.20;;
479;SDS011;226;48.606;9.096;2022-07-15T16:09:09;1.73;;;1.63;;
479;SDS011;226;48.606;9.096;2022-07-15T16:11:38;1.60;;;1.43;;
479;SDS011;226;48.606;9.096;2022-07-15T16:14:06;12.07;;;2.60;;
479;SDS011;226;48.606;9.096;2022-07-15T16:16:34;3.33;;;1.60;;